Time;durP1;ratioP1;P1;durP2;ratioP2;P2;SDS_P1;SDS_P2;PMS_P1;PMS_P2;Temp;Humidity;BMP_temperature;BMP_pressure;BME280_temperature;BME280_humidity;BME280_pressure;Samples;Min_cycle;Max_cycle;Signal;HPM_P1;HPM_P2
2023/07/05 00:01:53;;;;;;;26.60;20.40;;;;;;;15.36;65.77;100483.84;103821;278;38351;-69
2023/07/05 00:04:26;;;;;;;;;;;;;;;15.28;65.88;100480.94;103756;278;174965;-71
2023/07/05 00:07:00;;;;;;;26.00;19.80;;;;;;;15.17;66.22;100484.02;103848;278;39308;-72
2023/07/05 00:09:38;;;;;;;27.80;19.40;;;;;;;15.14;66.21;100486.98;103844;279;38989;-72
2023/07/05 00:12:13;;;;;;;28.80;21.00;;;;;;;15.09;66.41;100485.48;103809;278;38281;-72
2023/07/05 00:14:47;;;;;;;30.50;20.40;;;;;;;15.06;66.49;100484.45;103854;278;38528;-72
2023/07/05 00:17:24;;;;;;;26.40;19.90;;;;;;;15.04;66.92;100483.33;103812;278;38362;-72
2023/07/05 00:20:00;;;;;;;27.10;20.10;;;;;;;15.02;67.12;100484.88;103873;278;38685;-73
2023/07/05 00:22:34;;;;;;;25.40;19.10;;;;;;;14.99;67.24;100484.67;103853;267;38842;-72
2023/07/05 00:25:11;;;;;;;25.90;19.80;;;;;;;14.96;67.02;100489.20;103904;278;38055;-72
2023/07/05 00:27:45;;;;;;;25.80;19.40;;;;;;;14.94;67.16;100491.08;103798;278;40295;-73
2023/07/05 00:30:20;;;;;;;29.30;20.60;;;;;;;14.90;67.38;100489.54;103856;277;39440;-72
2023/07/05 00:32:54;;;;;;;27.10;19.90;;;;;;;14.86;67.45;100487.48;103860;278;38542;-72
2023/07/05 00:35:28;;;;;;;27.60;20.10;;;;;;;14.83;67.53;100485.15;103886;278;38296;-72
2023/07/05 00:38:02;;;;;;;33.70;21.10;;;;;;;14.81;67.64;100484.61;103849;278;38613;-72
2023/07/05 00:40:36;;;;;;;28.70;21.70;;;;;;;14.79;67.74;100486.96;103932;278;38477;-69
2023/07/05 00:43:10;;;;;;;27.20;21.10;;;;;;;14.76;67.84;100488.02;103922;277;38963;-71
2023/07/05 00:45:56;;;;;;;29.40;22.10;;;;;;;14.70;67.85;100484.11;103793;278;175011;-71
2023/07/05 00:48:38;;;;;;;29.40;22.10;;;;;;;14.64;68.18;100482.48;103880;278;39190;-72
2023/07/05 00:51:17;;;;;;;27.50;21.00;;;;;;;14.59;68.38;100483.65;103889;278;38714;-70
2023/07/05 00:53:52;;;;;;;29.40;20.60;;;;;;;14.55;68.20;100483.48;103913;278;38492;-71
2023/07/05 00:56:30;;;;;;;30.70;21.50;;;;;;;14.55;68.38;100485.80;103788;278;39708;-73
2023/07/05 00:59:05;;;;;;;27.10;21.30;;;;;;;14.53;68.42;100485.02;103865;278;39300;-72
2023/07/05 01:01:43;;;;;;;28.70;21.90;;;;;;;14.47;68.58;100488.66;103797;278;38245;-72
2023/07/05 01:04:19;;;;;;;30.90;21.90;;;;;;;14.41;68.58;100488.55;103863;278;38268;-72
2023/07/05 01:06:54;;;;;;;28.40;22.20;;;;;;;14.36;68.89;100489.38;103194;278;902387;-73
2023/07/05 01:09:28;;;;;;;28.60;22.10;;;;;;;14.30;69.09;100487.06;103846;278;38457;-71
2023/07/05 01:12:10;;;;;;;29.50;22.20;;;;;;;14.28;69.21;100489.08;103807;278;38337;-72
2023/07/05 01:14:50;;;;;;;29.80;22.70;;;;;;;14.21;69.43;100486.64;103887;278;38493;-72
2023/07/05 01:17:32;;;;;;;29.20;22.20;;;;;;;14.17;69.57;100487.54;103837;278;38434;-72
2023/07/05 01:20:26;;;;;;;29.70;21.00;;;;;;;14.14;69.80;100485.59;103822;278;39444;-72
2023/07/05 01:23:43;;;;;;;28.60;21.40;;;;;;;14.11;69.90;100486.98;103907;278;38230;-72
2023/07/05 01:26:55;;;;;;;33.70;22.10;;;;;;;14.08;69.92;100488.73;103861;278;38396;-70
2023/07/05 01:30:01;;;;;;;32.70;22.80;;;;;;;14.04;70.06;100490.30;103880;278;38245;-71
2023/07/05 01:32:36;;;;;;;27.10;21.40;;;;;;;14.00;70.21;100484.92;103890;278;38608;-70
2023/07/05 01:35:14;;;;;;;29.90;21.10;;;;;;;13.96;70.15;100485.27;103917;278;38401;-71
2023/07/05 01:37:48;;;;;;;30.70;20.90;;;;;;;13.90;70.33;100482.58;103895;278;38397;-72
2023/07/05 01:40:53;;;;;;;27.90;20.30;;;;;;;13.87;70.40;100479.95;103692;278;39382;-72
2023/07/05 01:43:31;;;;;;;28.80;21.00;;;;;;;13.83;70.56;100482.61;103798;278;38406;-72
2023/07/05 01:46:26;;;;;;;27.30;20.20;;;;;;;13.80;70.54;100483.97;103730;278;174689;-70
2023/07/05 01:49:27;;;;;;;25.30;19.40;;;;;;;13.76;70.56;100485.73;103845;278;39978;-70
2023/07/05 01:52:05;;;;;;;24.50;19.30;;;;;;;13.70;70.60;100482.88;103814;278;38262;-69
2023/07/05 01:54:45;;;;;;;26.50;19.60;;;;;;;13.67;70.75;100484.95;103871;278;38486;-71
2023/07/05 01:57:23;;;;;;;29.80;19.70;;;;;;;13.66;70.90;100480.98;103832;278;38610;-70
2023/07/05 02:00:01;;;;;;;26.80;19.60;;;;;;;13.63;71.03;100481.11;103883;278;38415;-73
2023/07/05 02:02:39;;;;;;;28.20;19.50;;;;;;;13.61;71.08;100483.14;103752;278;38266;-73
2023/07/05 02:05:13;;;;;;;26.00;19.10;;;;;;;13.61;71.35;100483.86;103908;278;38272;-71
2023/07/05 02:07:49;;;;;;;25.90;19.80;;;;;;;13.60;71.41;100487.06;103848;278;38518;-73
2023/07/05 02:10:24;;;;;;;27.60;20.30;;;;;;;13.57;71.46;100488.24;103915;278;39859;-73
2023/07/05 02:13:00;;;;;;;27.00;19.70;;;;;;;13.56;71.46;100489.56;103870;278;39548;-72
2023/07/05 02:15:37;;;;;;;27.50;19.40;;;;;;;13.54;71.48;100492.42;103912;278;38233;-73
2023/07/05 02:18:14;;;;;;;33.60;19.50;;;;;;;13.54;71.45;100494.73;103885;278;38590;-73
2023/07/05 02:20:49;;;;;;;26.40;19.80;;;;;;;13.52;71.99;100497.63;103779;280;39475;-70
2023/07/05 02:23:23;;;;;;;27.70;19.70;;;;;;;13.52;72.00;100499.70;103901;278;38216;-70
2023/07/05 02:26:03;;;;;;;29.70;20.50;;;;;;;13.49;72.13;100501.62;103838;278;38343;-72
2023/07/05 02:28:37;;;;;;;28.70;19.60;;;;;;;13.45;72.38;100503.02;103877;278;38246;-70
2023/07/05 02:31:13;;;;;;;27.40;19.60;;;;;;;13.41;72.35;100503.91;103804;278;38496;-70
2023/07/05 02:33:47;;;;;;;26.80;19.90;;;;;;;13.37;72.43;100508.31;103744;278;38286;-69
2023/07/05 02:36:22;;;;;;;31.20;20.90;;;;;;;13.33;72.52;100507.98;103791;278;39648;-69
2023/07/05 02:38:56;;;;;;;26.70;20.10;;;;;;;13.31;72.74;100510.71;103834;278;38343;-71
2023/07/05 02:41:31;;;;;;;26.50;19.40;;;;;;;13.28;72.75;100514.86;103826;278;38647;-73
2023/07/05 02:44:05;;;;;;;32.80;19.70;;;;;;;13.26;72.90;100512.88;103844;278;38541;-70
2023/07/05 02:46:39;;;;;;;25.60;19.00;;;;;;;13.25;73.04;100515.02;103832;278;38441;-71
2023/07/05 02:49:14;;;;;;;27.20;19.40;;;;;;;13.25;73.07;100515.88;103851;278;39696;-73
2023/07/05 02:51:48;;;;;;;24.40;19.60;;;;;;;13.25;73.35;100517.82;103868;278;38835;-72
2023/07/05 02:54:22;;;;;;;28.60;20.30;;;;;;;13.23;73.37;100518.10;103851;278;39743;-70
2023/07/05 02:56:57;;;;;;;29.10;20.50;;;;;;;13.22;73.39;100520.60;103882;278;38396;-70
2023/07/05 02:59:32;;;;;;;27.40;20.00;;;;;;;13.23;73.54;100522.81;103903;278;38623;-72
2023/07/05 03:02:09;;;;;;;25.70;20.10;;;;;;;13.25;73.78;100521.48;103910;278;38130;-72
2023/07/05 03:04:47;;;;;;;26.60;19.80;;;;;;;13.27;74.00;100521.93;103881;278;38434;-72
2023/07/05 03:07:22;;;;;;;28.80;19.70;;;;;;;13.28;74.11;100523.44;103881;278;39228;-73
2023/07/05 03:09:56;;;;;;;28.10;19.90;;;;;;;13.30;74.27;100522.13;103860;278;39402;-71
2023/07/05 03:12:30;;;;;;;25.10;19.50;;;;;;;13.34;74.33;100519.65;103843;278;39023;-70
2023/07/05 03:15:05;;;;;;;25.20;19.00;;;;;;;13.38;74.40;100521.58;103827;278;38245;-72
2023/07/05 03:17:39;;;;;;;27.90;20.00;;;;;;;13.42;74.43;100521.20;103837;278;38439;-72
2023/07/05 03:20:15;;;;;;;29.40;19.30;;;;;;;13.47;74.63;100519.43;103874;278;39709;-70
2023/07/05 03:22:50;;;;;;;29.80;20.10;;;;;;;13.52;74.82;100520.05;103721;278;175020;-70
2023/07/05 03:25:24;;;;;;;23.80;18.70;;;;;;;13.57;74.94;100516.12;103719;278;189224;-71
2023/07/05 03:27:58;;;;;;;27.30;19.70;;;;;;;13.63;74.94;100521.23;103812;278;39956;-71
2023/07/05 03:30:32;;;;;;;28.90;19.20;;;;;;;13.69;75.19;100521.34;103865;278;38308;-72
2023/07/05 03:33:06;;;;;;;26.00;18.70;;;;;;;13.77;75.22;100519.17;103818;278;38289;-72
2023/07/05 03:35:40;;;;;;;27.00;18.80;;;;;;;13.92;75.43;100519.34;103866;278;40095;-72
2023/07/05 03:38:14;;;;;;;26.10;18.90;;;;;;;14.10;75.29;100519.46;103879;278;38760;-73
2023/07/05 03:40:59;;;;;;;26.70;18.90;;;;;;;14.36;75.06;100520.45;103899;278;38282;-70
2023/07/05 03:43:36;;;;;;;28.00;18.90;;;;;;;14.70;75.08;100525.17;103512;278;38625;-70
2023/07/05 03:46:14;;;;;;;26.30;19.70;;;;;;;15.05;74.99;100520.35;103869;278;38234;-70
2023/07/05 03:48:51;;;;;;;30.00;18.70;;;;;;;15.41;74.39;100527.85;103917;278;39685;-71
2023/07/05 03:51:25;;;;;;;22.60;17.90;;;;;;;15.81;74.24;100531.82;103870;278;38244;-73
2023/07/05 03:53:59;;;;;;;26.40;17.50;;;;;;;16.19;73.50;100533.64;103882;278;38577;-72
2023/07/05 03:56:38;;;;;;;26.00;18.40;;;;;;;16.54;72.62;100529.73;103834;278;38511;-73
2023/07/05 03:59:12;;;;;;;21.40;17.40;;;;;;;16.94;71.76;100531.05;103856;278;38587;-72
2023/07/05 04:01:46;;;;;;;22.50;17.00;;;;;;;17.27;70.99;100530.39;103848;278;38278;-72
2023/07/05 04:04:20;;;;;;;23.70;17.70;;;;;;;17.58;70.21;100529.83;103893;278;39453;-70
2023/07/05 04:06:54;;;;;;;22.20;17.50;;;;;;;17.88;69.39;100531.78;103811;278;39070;-70
2023/07/05 04:09:30;;;;;;;20.00;16.10;;;;;;;18.22;68.89;100534.28;103767;279;38527;-69
2023/07/05 04:12:07;;;;;;;19.30;16.20;;;;;;;18.56;67.72;100530.90;103827;278;38261;-67
2023/07/05 04:14:44;;;;;;;20.60;16.00;;;;;;;18.87;67.15;100532.30;103930;278;39203;-70
2023/07/05 04:17:19;;;;;;;21.50;15.90;;;;;;;19.18;66.14;100528.02;103740;278;171645;-69
2023/07/05 04:19:53;;;;;;;18.60;15.00;;;;;;;19.44;65.44;100531.98;103863;278;39664;-73
2023/07/05 04:22:27;;;;;;;20.20;15.50;;;;;;;19.74;64.97;100537.09;103852;278;38517;-72
2023/07/05 04:25:02;;;;;;;19.90;15.00;;;;;;;20.00;64.07;100538.35;103916;278;38419;-72
2023/07/05 04:27:36;;;;;;;20.50;15.20;;;;;;;20.20;62.79;100537.19;103902;267;38402;-71
2023/07/05 04:30:14;;;;;;;18.00;14.10;;;;;;;20.10;61.85;100540.40;103724;278;174717;-71
2023/07/05 04:32:47;;;;;;;;;;;;;;;19.88;61.95;100539.77;103922;278;38269;-71
2023/07/05 04:35:21;;;;;;;18.90;14.70;;;;;;;19.69;62.65;100540.85;103895;278;39405;-73
2023/07/05 04:37:56;;;;;;;20.70;14.90;;;;;;;19.59;63.07;100542.77;103894;278;38975;-73
2023/07/05 04:40:30;;;;;;;17.50;14.20;;;;;;;19.52;63.18;100543.41;103865;278;38651;-73
2023/07/05 04:43:04;;;;;;;20.60;14.60;;;;;;;19.51;63.27;100540.48;103888;278;39675;-73
2023/07/05 04:45:38;;;;;;;17.50;14.30;;;;;;;19.48;63.36;100538.46;103754;278;174754;-73
2023/07/05 04:48:12;;;;;;;17.30;14.30;;;;;;;19.45;63.69;100540.02;103831;278;38365;-73
2023/07/05 04:50:48;;;;;;;19.00;14.80;;;;;;;19.52;63.54;100537.79;103852;278;38503;-70
2023/07/05 04:53:22;;;;;;;19.50;14.40;;;;;;;19.65;63.35;100540.04;103800;278;39476;-70
2023/07/05 04:55:58;;;;;;;18.30;13.90;;;;;;;19.90;62.99;100544.75;103863;278;38874;-70
2023/07/05 04:58:32;;;;;;;19.10;13.70;;;;;;;20.14;62.42;100542.45;103811;278;38287;-70
2023/07/05 05:01:07;;;;;;;16.90;13.50;;;;;;;20.28;62.28;100545.96;103859;278;38230;-72
2023/07/05 05:03:41;;;;;;;17.60;14.50;;;;;;;20.52;62.23;100543.81;103878;278;38230;-69
2023/07/05 05:06:15;;;;;;;18.30;13.40;;;;;;;21.11;61.83;100540.95;103870;278;38467;-69
2023/07/05 05:08:50;;;;;;;17.20;13.70;;;;;;;21.83;60.18;100539.95;103755;279;38727;-71
2023/07/05 05:11:26;;;;;;;17.70;12.60;;;;;;;22.67;57.99;100537.54;103861;278;38419;-72
2023/07/05 05:14:01;;;;;;;20.60;11.40;;;;;;;23.48;55.07;100534.52;103902;278;38221;-69
2023/07/05 05:16:35;;;;;;;15.40;10.70;;;;;;;24.21;52.04;100536.11;103875;278;39655;-70
2023/07/05 05:19:10;;;;;;;14.30;10.70;;;;;;;24.84;49.50;100537.47;103908;278;39843;-72
2023/07/05 05:21:44;;;;;;;13.40;10.70;;;;;;;25.40;47.07;100535.90;103725;278;174983;-72
2023/07/05 05:24:18;;;;;;;16.80;11.10;;;;;;;25.86;45.56;100537.60;103874;278;38329;-73
2023/07/05 05:26:52;;;;;;;15.80;11.00;;;;;;;26.38;44.05;100541.82;103835;278;38338;-73
2023/07/05 05:29:27;;;;;;;20.90;10.50;;;;;;;26.95;42.47;100537.77;103863;278;38366;-73
2023/07/05 05:32:01;;;;;;;12.20;9.90;;;;;;;27.43;41.15;100535.55;103846;278;38536;-73
2023/07/05 05:34:35;;;;;;;17.90;9.80;;;;;;;27.74;40.65;100539.05;103906;278;39972;-72
2023/07/05 05:37:09;;;;;;;14.70;9.50;;;;;;;28.07;39.89;100543.86;103842;278;38304;-72
2023/07/05 05:39:44;;;;;;;15.80;9.80;;;;;;;28.56;38.24;100544.64;103807;278;38287;-70
2023/07/05 05:42:18;;;;;;;12.20;8.50;;;;;;;28.98;37.01;100546.86;103753;278;38268;-68
2023/07/05 05:44:52;;;;;;;13.90;9.10;;;;;;;29.35;35.94;100542.75;103850;278;38268;-72
2023/07/05 05:47:27;;;;;;;12.70;7.90;;;;;;;29.65;35.00;100543.20;103673;279;38795;-70
2023/07/05 05:50:01;;;;;;;9.00;7.70;;;;;;;29.94;34.51;100543.84;103708;279;38237;-70
2023/07/05 05:52:37;;;;;;;14.30;8.10;;;;;;;30.08;33.62;100546.42;103732;279;38282;-69
2023/07/05 05:55:13;;;;;;;11.60;8.20;;;;;;;30.22;32.65;100544.83;103772;279;38267;-72
2023/07/05 05:57:47;;;;;;;11.80;8.20;;;;;;;30.39;32.16;100545.13;103698;279;38511;-72
2023/07/05 06:00:22;;;;;;;12.80;8.40;;;;;;;30.65;32.12;100543.86;103765;279;38647;-75
2023/07/05 06:02:57;;;;;;;13.20;8.60;;;;;;;30.99;30.97;100541.17;103672;281;39405;-75
2023/07/05 06:05:31;;;;;;;12.30;8.10;;;;;;;31.17;31.32;100539.09;103689;280;39568;-74
2023/07/05 06:08:06;;;;;;;13.80;8.40;;;;;;;31.47;30.89;100541.53;103737;279;39269;-75
2023/07/05 06:10:42;;;;;;;16.20;8.90;;;;;;;31.73;30.38;100540.52;103717;279;39435;-74
2023/07/05 06:13:16;;;;;;;10.90;8.20;;;;;;;32.04;29.36;100543.08;103773;279;38853;-74
2023/07/05 06:15:55;;;;;;;14.40;8.70;;;;;;;32.17;28.92;100543.23;103686;279;38252;-74
2023/07/05 06:18:31;;;;;;;10.90;8.20;;;;;;;32.43;28.56;100544.55;103684;279;38507;-74
2023/07/05 06:21:05;;;;;;;12.60;8.40;;;;;;;32.72;28.06;100548.59;103679;279;38834;-74
2023/07/05 06:23:40;;;;;;;10.80;8.40;;;;;;;32.97;27.69;100548.31;103731;279;38235;-74
2023/07/05 06:26:14;;;;;;;9.00;8.10;;;;;;;33.09;27.19;100541.99;103715;279;38556;-74
2023/07/05 06:28:48;;;;;;;9.30;8.00;;;;;;;33.20;27.35;100542.28;103715;279;39828;-75
2023/07/05 06:31:23;;;;;;;9.80;8.30;;;;;;;33.40;27.00;100538.91;103680;279;39316;-77
2023/07/05 06:33:58;;;;;;;11.10;8.10;;;;;;;33.59;27.05;100541.29;103719;279;39476;-74
2023/07/05 06:36:32;;;;;;;10.50;8.40;;;;;;;33.83;26.86;100536.28;103716;279;39680;-75
2023/07/05 06:39:07;;;;;;;10.80;7.80;;;;;;;34.09;25.85;100533.67;103803;279;39830;-75
2023/07/05 06:41:41;;;;;;;11.80;8.20;;;;;;;34.12;26.12;100536.35;103113;279;887948;-74
2023/07/05 06:44:17;;;;;;;12.00;8.30;;;;;;;34.22;25.53;100535.84;103748;281;38253;-74
2023/07/05 06:46:51;;;;;;;9.10;7.00;;;;;;;34.35;24.46;100536.56;103822;278;38382;-74
2023/07/05 06:49:25;;;;;;;13.80;7.80;;;;;;;34.48;24.03;100535.77;103904;278;39514;-75
2023/07/05 06:51:59;;;;;;;9.00;7.70;;;;;;;34.67;23.56;100535.71;103919;278;39079;-74
2023/07/05 06:54:34;;;;;;;10.60;7.30;;;;;;;34.67;23.28;100535.38;103846;278;39254;-74
2023/07/05 06:57:10;;;;;;;11.80;7.70;;;;;;;34.81;23.04;100535.34;103757;278;38236;-74
2023/07/05 06:59:44;;;;;;;10.60;7.90;;;;;;;34.97;23.14;100532.78;103857;278;39184;-72
2023/07/05 07:02:18;;;;;;;11.10;7.30;;;;;;;35.09;22.84;100531.48;103809;278;39275;-72
2023/07/05 07:04:53;;;;;;;11.30;7.50;;;;;;;35.19;22.58;100529.31;103865;278;39059;-75
2023/07/05 07:07:27;;;;;;;11.70;7.60;;;;;;;35.26;22.91;100533.13;103792;278;38278;-72
2023/07/05 07:10:02;;;;;;;9.80;7.80;;;;;;;35.25;22.71;100534.52;103812;278;38758;-72
2023/07/05 07:12:36;;;;;;;11.40;8.00;;;;;;;35.42;22.54;100532.09;103798;278;38328;-73
2023/07/05 07:15:13;;;;;;;9.70;7.60;;;;;;;35.56;22.60;100534.42;103846;278;38275;-70
2023/07/05 07:17:47;;;;;;;9.80;7.70;;;;;;;35.63;22.39;100532.55;103753;278;38512;-70
2023/07/05 07:20:25;;;;;;;10.10;8.20;;;;;;;35.74;22.58;100534.83;103857;278;38381;-72
2023/07/05 07:22:57;;;;;;;;;;;;;;;36.03;22.18;100536.83;103864;278;39602;-73
2023/07/05 07:25:32;;;;;;;11.00;8.60;;;;;;;36.10;22.09;100538.11;103907;278;39260;-74
2023/07/05 07:28:06;;;;;;;12.00;9.00;;;;;;;36.17;21.47;100534.61;103843;278;38241;-72
2023/07/05 07:30:40;;;;;;;11.60;9.10;;;;;;;36.29;21.63;100537.03;103874;267;38580;-70
2023/07/05 07:33:14;;;;;;;12.60;9.60;;;;;;;36.27;20.78;100531.52;103897;278;38454;-70
2023/07/05 07:35:51;;;;;;;10.40;8.70;;;;;;;35.89;21.75;100528.66;103874;278;38722;-70
2023/07/05 07:38:25;;;;;;;10.50;9.40;;;;;;;35.90;21.46;100529.52;103839;278;39422;-70
2023/07/05 07:41:00;;;;;;;10.80;9.10;;;;;;;36.08;21.82;100532.04;103793;278;39994;-70
2023/07/05 07:43:34;;;;;;;12.20;9.70;;;;;;;36.31;21.00;100531.90;103851;275;38825;-71
2023/07/05 07:46:13;;;;;;;12.00;10.50;;;;;;;36.50;20.99;100528.02;103840;278;38830;-72
2023/07/05 07:48:50;;;;;;;12.60;10.30;;;;;;;36.87;21.12;100527.67;103858;278;38235;-71
2023/07/05 07:51:25;;;;;;;10.90;9.90;;;;;;;37.06;20.43;100524.83;103796;278;38243;-70
2023/07/05 07:53:59;;;;;;;12.30;9.80;;;;;;;37.10;19.98;100523.05;103813;278;38707;-72
2023/07/05 07:56:33;;;;;;;11.10;10.00;;;;;;;37.17;19.95;100520.78;103835;278;39947;-72
2023/07/05 07:59:07;;;;;;;13.00;9.60;;;;;;;37.30;19.99;100526.92;103830;278;38490;-72
2023/07/05 08:01:42;;;;;;;9.90;9.10;;;;;;;37.36;19.66;100523.33;103774;278;39418;-72
2023/07/05 08:04:16;;;;;;;14.20;10.70;;;;;;;37.41;20.18;100515.47;103858;278;38243;-70
2023/07/05 08:06:52;;;;;;;11.70;9.00;;;;;;;37.67;19.38;100517.86;103820;278;39399;-70
2023/07/05 08:09:27;;;;;;;10.50;9.50;;;;;;;37.83;18.92;100519.23;103811;278;38458;-72
2023/07/05 08:12:01;;;;;;;11.20;9.90;;;;;;;37.95;19.05;100519.77;103893;278;38880;-73
2023/07/05 08:14:36;;;;;;;10.90;9.80;;;;;;;38.08;18.45;100520.94;103789;280;38254;-71
2023/07/05 08:17:10;;;;;;;10.90;9.90;;;;;;;38.15;18.48;100517.91;103867;278;38426;-69
2023/07/05 08:19:45;;;;;;;11.10;10.00;;;;;;;38.29;18.71;100519.34;103841;278;38351;-73
2023/07/05 08:22:20;;;;;;;10.90;9.90;;;;;;;38.46;18.59;100514.39;103897;278;38425;-73
2023/07/05 08:24:54;;;;;;;11.30;10.20;;;;;;;38.59;18.13;100505.55;103897;278;38529;-73
2023/07/05 08:27:28;;;;;;;12.80;10.30;;;;;;;38.66;18.13;100503.31;103893;278;38250;-73
2023/07/05 08:30:03;;;;;;;12.10;10.30;;;;;;;38.90;17.87;100502.70;103859;278;38531;-70
2023/07/05 08:32:37;;;;;;;13.00;10.90;;;;;;;39.13;17.59;100503.48;103817;278;38746;-70
2023/07/05 08:35:13;;;;;;;12.20;11.00;;;;;;;39.22;17.72;100500.63;103863;278;39658;-70
2023/07/05 08:37:48;;;;;;;13.80;11.70;;;;;;;39.25;17.31;100497.69;103855;278;39629;-70
2023/07/05 08:40:22;;;;;;;14.40;11.30;;;;;;;39.36;17.68;100488.14;103809;278;38511;-70
2023/07/05 08:43:00;;;;;;;12.50;11.40;;;;;;;39.53;17.51;100490.36;103836;278;38240;-70
2023/07/05 08:45:35;;;;;;;;;;;;;;;39.65;17.75;100489.96;103719;280;41268;-73
2023/07/05 08:48:11;;;;;;;12.50;11.20;;;;;;;39.90;17.54;100488.23;103791;278;38685;-72
2023/07/05 08:50:46;;;;;;;12.50;11.30;;;;;;;40.06;17.28;100484.50;103856;278;38302;-70
2023/07/05 08:53:23;;;;;;;12.90;11.60;;;;;;;40.23;17.29;100483.98;103816;278;38231;-70
2023/07/05 08:56:01;;;;;;;13.50;12.10;;;;;;;40.42;16.52;100485.77;103731;278;173364;-73
2023/07/05 08:58:48;;;;;;;14.00;12.00;;;;;;;40.53;16.31;100482.60;103826;279;38252;-72
2023/07/05 09:01:26;;;;;;;14.20;12.40;;;;;;;40.65;16.84;100477.68;103838;278;38518;-74
2023/07/05 09:04:00;;;;;;;14.00;12.70;;;;;;;40.70;16.14;100468.80;103901;278;38397;-72
2023/07/05 09:06:39;;;;;;;13.40;12.20;;;;;;;40.50;16.35;100469.22;103235;278;880926;-73
2023/07/05 09:09:25;;;;;;;14.30;12.90;;;;;;;40.05;16.02;100470.77;103900;278;39006;-72
2023/07/05 09:12:08;;;;;;;15.20;13.50;;;;;;;39.53;16.17;100462.71;103817;278;39787;-74
2023/07/05 09:14:57;;;;;;;14.00;12.50;;;;;;;39.17;16.64;100459.40;103865;278;39469;-72
2023/07/05 09:17:43;;;;;;;14.40;12.90;;;;;;;38.77;17.33;100459.73;103853;278;38240;-71
2023/07/05 09:20:39;;;;;;;15.40;13.40;;;;;;;38.34;17.42;100459.16;103798;278;38365;-72
2023/07/05 09:23:17;;;;;;;15.20;13.60;;;;;;;37.68;18.72;100452.35;103851;278;38489;-71
2023/07/05 09:25:56;;;;;;;15.80;13.20;;;;;;;37.25;18.36;100449.02;103858;278;38260;-72
2023/07/05 09:28:36;;;;;;;16.60;14.50;;;;;;;37.16;18.54;100451.33;103827;278;38799;-70
2023/07/05 09:31:14;;;;;;;15.80;14.30;;;;;;;37.05;18.68;100451.41;103711;279;38468;-73
2023/07/05 09:33:50;;;;;;;15.30;13.70;;;;;;;36.83;19.17;100448.46;103728;279;38399;-73
2023/07/05 09:36:26;;;;;;;15.50;13.90;;;;;;;36.59;19.28;100443.63;103797;278;38234;-73
2023/07/05 09:39:06;;;;;;;16.80;13.80;;;;;;;36.34;19.96;100442.52;103860;278;39434;-71
2023/07/05 09:41:47;;;;;;;15.30;13.70;;;;;;;36.21;20.29;100447.40;103819;278;39544;-71
2023/07/05 09:44:22;;;;;;;19.80;14.80;;;;;;;36.18;19.98;100448.94;103740;269;39926;-71
2023/07/05 09:46:56;;;;;;;15.70;14.10;;;;;;;36.02;19.61;100442.51;103845;278;40055;-71
2023/07/05 09:49:32;;;;;;;16.00;14.50;;;;;;;35.89;19.96;100435.52;103877;278;39473;-72
2023/07/05 09:52:08;;;;;;;15.70;14.10;;;;;;;35.77;20.33;100437.45;103824;278;39434;-73
2023/07/05 09:54:42;;;;;;;16.30;14.10;;;;;;;35.68;20.78;100442.51;103780;278;173754;-73
2023/07/05 09:57:22;;;;;;;16.00;13.90;;;;;;;35.57;20.75;100443.10;103806;278;38505;-73
2023/07/05 09:59:56;;;;;;;17.60;14.30;;;;;;;35.53;20.64;100438.44;103851;278;40010;-71
2023/07/05 10:02:33;;;;;;;16.50;14.50;;;;;;;35.46;21.14;100435.88;103868;278;38489;-71
2023/07/05 10:05:19;;;;;;;16.20;14.30;;;;;;;35.52;21.22;100436.63;103628;280;174034;-70
2023/07/05 10:08:00;;;;;;;17.40;14.80;;;;;;;35.58;20.60;100430.91;103867;278;38377;-70
2023/07/05 10:10:40;;;;;;;16.60;14.90;;;;;;;35.58;20.81;100425.71;103879;278;39648;-70
2023/07/05 10:13:20;;;;;;;16.30;14.20;;;;;;;35.47;20.42;100424.52;103805;278;38452;-70
2023/07/05 10:16:02;;;;;;;19.10;15.40;;;;;;;35.22;20.32;100420.39;103869;278;38642;-71
2023/07/05 10:18:37;;;;;;;16.30;14.70;;;;;;;34.80;20.55;100416.06;103841;278;38420;-71
2023/07/05 10:21:24;;;;;;;16.20;14.50;;;;;;;34.49;21.00;100411.40;103813;278;38786;-70
2023/07/05 10:24:04;;;;;;;16.80;15.00;;;;;;;34.30;21.35;100420.04;103837;278;38485;-72
2023/07/05 10:26:39;;;;;;;16.60;14.90;;;;;;;34.02;21.55;100413.64;103795;278;39632;-73
2023/07/05 10:29:15;;;;;;;18.50;15.20;;;;;;;33.67;22.21;100413.77;103812;278;38236;-71
2023/07/05 10:31:57;;;;;;;16.50;14.90;;;;;;;33.39;22.93;100409.66;103852;278;38744;-71
2023/07/05 10:34:32;;;;;;;16.50;14.80;;;;;;;33.33;22.66;100406.73;103189;278;888479;-73
2023/07/05 10:37:24;;;;;;;16.90;14.90;;;;;;;33.20;22.94;100404.98;103795;278;38426;-73
2023/07/05 10:39:58;;;;;;;20.90;15.30;;;;;;;33.03;23.43;100404.83;103833;278;38204;-70
2023/07/05 10:42:33;;;;;;;16.70;14.80;;;;;;;32.86;23.73;100398.40;103739;278;174159;-69
2023/07/05 10:45:13;;;;;;;16.60;14.90;;;;;;;32.73;23.76;100400.55;103837;278;39410;-72
2023/07/05 10:47:51;;;;;;;17.00;15.30;;;;;;;32.70;24.04;100399.63;103837;278;39424;-72
2023/07/05 10:50:38;;;;;;;16.40;14.70;;;;;;;32.85;23.49;100392.69;103850;278;38227;-72
2023/07/05 10:53:20;;;;;;;17.70;15.80;;;;;;;32.84;23.65;100390.59;103854;278;38260;-72
2023/07/05 10:55:59;;;;;;;16.20;14.60;;;;;;;32.68;23.53;100394.23;103898;278;39124;-70
2023/07/05 10:58:42;;;;;;;17.70;15.80;;;;;;;32.67;23.97;100394.69;103888;278;38404;-71
2023/07/05 11:01:20;;;;;;;17.20;14.60;;;;;;;32.65;23.91;100387.73;103837;278;38435;-73
2023/07/05 11:03:57;;;;;;;16.50;14.80;;;;;;;32.59;24.15;100384.86;103838;275;38268;-72
2023/07/05 11:06:35;;;;;;;18.80;15.60;;;;;;;32.71;24.00;100384.70;103685;280;37217;-72
2023/07/05 11:09:11;;;;;;;19.80;15.60;;;;;;;32.83;23.81;100376.41;103929;278;39415;-72
2023/07/05 11:11:48;;;;;;;17.50;15.50;;;;;;;32.99;23.73;100370.95;103796;278;38347;-73
2023/07/05 11:14:24;;;;;;;19.10;14.60;;;;;;;33.13;23.92;100381.33;103840;278;39716;-70
2023/07/05 11:17:01;;;;;;;17.30;15.40;;;;;;;33.24;23.26;100376.09;103785;278;39460;-70
2023/07/05 11:19:35;;;;;;;17.10;15.30;;;;;;;33.28;23.25;100375.75;103849;278;39877;-71
2023/07/05 11:22:27;;;;;;;16.20;13.50;;;;;;;33.22;22.92;100367.70;103799;278;38269;-71
2023/07/05 11:25:01;;;;;;;16.20;14.60;;;;;;;33.11;23.33;100366.05;103827;278;38272;-71
2023/07/05 11:27:57;;;;;;;15.40;13.80;;;;;;;33.02;23.21;100365.36;103795;278;39401;-70
2023/07/05 11:30:47;;;;;;;16.30;14.50;;;;;;;32.99;23.34;100363.14;103865;278;38366;-72
2023/07/05 11:33:23;;;;;;;15.30;13.60;;;;;;;32.95;23.45;100364.84;103820;278;39451;-73
2023/07/05 11:35:59;;;;;;;15.60;13.70;;;;;;;32.99;23.40;100355.59;103898;278;39445;-71
2023/07/05 11:39:10;;;;;;;17.10;14.20;;;;;;;32.96;23.31;100354.27;103865;278;38620;-70
2023/07/05 11:41:45;;;;;;;16.60;14.30;;;;;;;32.85;23.30;100344.77;103476;278;552690;-73
2023/07/05 11:44:35;;;;;;;14.90;13.30;;;;;;;32.74;23.37;100345.40;103913;278;38506;-72
2023/07/05 11:47:32;;;;;;;15.20;13.40;;;;;;;32.51;23.30;100342.23;103817;278;38277;-72
2023/07/05 11:50:08;;;;;;;14.90;13.40;;;;;;;32.46;23.82;100344.20;103817;278;38410;-72
2023/07/05 11:52:46;;;;;;;13.70;12.00;;;;;;;32.45;23.81;100346.99;103868;278;38512;-73
2023/07/05 11:55:23;;;;;;;14.40;12.50;;;;;;;32.48;24.20;100329.67;103868;278;38409;-72
2023/07/05 11:58:01;;;;;;;15.60;12.50;;;;;;;32.56;24.18;100326.78;103853;278;38058;-72